createdAt,value
2019-01-27T00:01:08.249Z,73.80
2019-01-27T00:03:36.833Z,73.39
2019-01-27T00:06:05.436Z,73.56
2019-01-27T00:08:34.137Z,73.24
2019-01-27T00:11:02.817Z,73.03
2019-01-27T00:13:31.456Z,73.08
2019-01-27T00:16:00.084Z,72.73
2019-01-27T00:18:28.745Z,72.36
2019-01-27T00:20:57.381Z,71.83
2019-01-27T00:23:26.036Z,71.24
2019-01-27T00:25:54.751Z,71.26
2019-01-27T00:28:23.388Z,71.19
2019-01-27T00:30:51.997Z,71.62
2019-01-27T00:33:20.609Z,71.42
2019-01-27T00:35:50.571Z,71.36
2019-01-27T00:38:19.191Z,71.34
2019-01-27T00:40:47.784Z,71.77
2019-01-27T00:43:16.376Z,71.60
2019-01-27T00:45:45.008Z,71.23
2019-01-27T00:48:13.690Z,71.33
2019-01-27T00:50:42.334Z,71.61
2019-01-27T00:53:10.947Z,71.48
2019-01-27T00:55:39.619Z,71.74
2019-01-27T00:58:08.252Z,71.59
2019-01-27T01:00:36.818Z,72.01
2019-01-27T01:03:05.736Z,72.24
2019-01-27T01:05:34.436Z,72.12
2019-01-27T01:08:03.017Z,72.12
2019-01-27T01:10:31.580Z,71.91
2019-01-27T01:13:00.246Z,71.87
2019-01-27T01:15:28.869Z,72.11
2019-01-27T01:17:57.537Z,72.42
2019-01-27T01:20:26.105Z,72.64
2019-01-27T01:22:54.703Z,72.74
2019-01-27T01:25:23.595Z,72.63
2019-01-27T01:27:52.574Z,72.50
2019-01-27T01:30:24.620Z,72.54
2019-01-27T01:32:53.339Z,72.59
2019-01-27T01:35:21.947Z,72.23
2019-01-27T01:37:50.737Z,72.58
2019-01-27T01:40:19.376Z,72.53
2019-01-27T01:42:47.981Z,72.37
2019-01-27T01:45:19.219Z,71.91
2019-01-27T01:47:47.873Z,71.90
2019-01-27T01:50:16.457Z,71.84
2019-01-27T01:52:45.050Z,71.64
2019-01-27T01:55:13.891Z,71.76
2019-01-27T01:57:42.534Z,71.54
2019-01-27T02:00:13.714Z,71.42
2019-01-27T02:02:42.401Z,70.95
2019-01-27T02:05:11.275Z,70.88
2019-01-27T02:07:39.880Z,71.15
2019-01-27T02:10:10.182Z,70.90
2019-01-27T02:12:38.814Z,71.14
2019-01-27T02:15:15.242Z,71.38
2019-01-27T02:17:43.921Z,72.04
2019-01-27T02:20:12.625Z,72.64
2019-01-27T02:22:41.476Z,72.65
2019-01-27T02:25:10.115Z,73.13
2019-01-27T02:27:38.859Z,73.19
2019-01-27T02:30:07.874Z,72.96
2019-01-27T02:32:36.521Z,72.02
2019-01-27T02:35:05.347Z,72.37
2019-01-27T02:37:34.050Z,72.07
2019-01-27T02:40:02.657Z,71.94
2019-01-27T02:42:31.273Z,72.36
2019-01-27T02:44:59.891Z,72.77
2019-01-27T02:47:28.531Z,72.71
2019-01-27T02:49:57.130Z,72.86
2019-01-27T02:52:25.740Z,72.94
2019-01-27T02:54:54.455Z,72.83
2019-01-27T02:57:23.027Z,72.58
2019-01-27T02:59:52.838Z,73.06
2019-01-27T03:02:21.621Z,72.75
2019-01-27T03:04:50.228Z,72.93
2019-01-27T03:07:36.098Z,73.40
2019-01-27T03:10:07.662Z,72.67
2019-01-27T03:12:36.226Z,72.76
2019-01-27T03:15:05.512Z,72.26
2019-01-27T03:17:34.135Z,72.21
2019-01-27T03:20:02.738Z,72.70
2019-01-27T03:22:31.329Z,72.05
2019-01-27T03:24:59.992Z,72.66
2019-01-27T03:27:28.561Z,72.95
2019-01-27T03:29:57.140Z,72.71
2019-01-27T03:32:25.825Z,72.72
2019-01-27T03:34:54.398Z,72.57
2019-01-27T03:37:23.038Z,72.50
2019-01-27T03:39:51.750Z,72.74
2019-01-27T03:42:20.344Z,72.73
2019-01-27T03:44:48.938Z,72.56
2019-01-27T03:47:17.718Z,72.56
2019-01-27T03:49:46.309Z,73.32
2019-01-27T03:52:15.089Z,73.15
2019-01-27T03:54:43.785Z,72.96
2019-01-27T03:57:12.370Z,72.89
2019-01-27T03:59:40.956Z,72.91
2019-01-27T04:02:08.979Z,73.49
2019-01-27T04:04:37.616Z,73.41
2019-01-27T04:07:06.292Z,73.44
2019-01-27T04:09:34.880Z,73.44
2019-01-27T04:12:03.501Z,73.62
2019-01-27T04:14:32.086Z,73.86
2019-01-27T04:17:00.737Z,74.16
2019-01-27T04:19:29.353Z,74.15
2019-01-27T04:21:58.005Z,74.40
2019-01-27T04:24:26.642Z,74.65
2019-01-27T04:26:55.292Z,74.68
2019-01-27T04:29:23.901Z,74.10
2019-01-27T04:31:52.549Z,73.81
2019-01-27T04:34:21.138Z,73.91
2019-01-27T04:36:49.732Z,73.90
2019-01-27T04:39:18.362Z,73.47
2019-01-27T04:41:46.966Z,73.53
2019-01-27T04:44:15.616Z,73.41
2019-01-27T04:46:44.201Z,73.71
2019-01-27T04:49:12.839Z,73.38
2019-01-27T04:51:41.459Z,73.04
2019-01-27T04:54:10.092Z,73.44
2019-01-27T04:56:38.684Z,72.95
2019-01-27T04:59:07.338Z,73.07
2019-01-27T05:01:35.969Z,72.86
2019-01-27T05:04:26.035Z,72.25
2019-01-27T05:06:54.631Z,72.62
2019-01-27T05:09:23.243Z,72.23
2019-01-27T05:11:52.633Z,72.51
2019-01-27T05:14:21.369Z,72.99
2019-01-27T05:16:49.983Z,72.36
2019-01-27T05:19:19.992Z,73.39
2019-01-27T05:21:48.606Z,73.38
2019-01-27T05:24:17.239Z,73.54
2019-01-27T05:26:45.834Z,73.56
2019-01-27T05:29:14.468Z,73.39
2019-01-27T05:31:43.070Z,73.05
2019-01-27T05:34:11.715Z,72.87
2019-01-27T05:36:40.320Z,72.58
2019-01-27T05:39:09.281Z,72.34
2019-01-27T05:41:37.838Z,72.12
2019-01-27T05:44:06.465Z,72.46
2019-01-27T05:46:35.098Z,72.43
2019-01-27T05:49:03.762Z,72.38
2019-01-27T05:51:32.347Z,72.59
2019-01-27T05:54:00.989Z,72.48
2019-01-27T05:56:29.655Z,71.99
2019-01-27T05:58:58.240Z,72.06
2019-01-27T06:01:26.789Z,72.07
2019-01-27T06:03:55.401Z,72.07
2019-01-27T06:06:24.069Z,72.77
2019-01-27T06:08:52.697Z,72.00
2019-01-27T06:11:21.336Z,72.00
2019-01-27T06:13:49.928Z,72.41
2019-01-27T06:16:18.656Z,72.61
2019-01-27T06:18:47.315Z,72.64
2019-01-27T06:21:15.892Z,72.44
2019-01-27T06:23:44.496Z,71.95
2019-01-27T06:26:13.090Z,72.20
2019-01-27T06:28:41.691Z,72.42
2019-01-27T06:31:10.312Z,72.57
2019-01-27T06:33:52.932Z,71.94
2019-01-27T06:36:21.407Z,72.08
2019-01-27T06:38:50.092Z,72.50
2019-01-27T06:41:18.676Z,71.93
2019-01-27T06:43:47.308Z,72.16
2019-01-27T06:46:15.975Z,72.23
2019-01-27T06:48:44.576Z,71.68
2019-01-27T06:51:13.491Z,71.63
2019-01-27T06:53:42.147Z,72.10
2019-01-27T06:56:10.759Z,71.71
2019-01-27T06:58:57.176Z,71.74
2019-01-27T07:01:32.884Z,71.74
2019-01-27T07:04:08.663Z,71.54
2019-01-27T07:06:59.345Z,71.54
2019-01-27T07:09:49.694Z,71.48
2019-01-27T07:12:26.812Z,71.56
2019-01-27T07:15:14.222Z,71.72
2019-01-27T07:18:01.905Z,72.20
2019-01-27T07:20:55.912Z,72.20
2019-01-27T07:23:32.955Z,71.93
2019-01-27T07:26:11.885Z,71.89
2019-01-27T07:29:02.887Z,71.72
2019-01-27T07:31:49.560Z,71.68
2019-01-27T07:34:35.877Z,72.08
2019-01-27T07:37:22.240Z,71.86
2019-01-27T07:40:03.639Z,71.26
2019-01-27T07:42:39.925Z,71.25
2019-01-27T07:45:28.806Z,71.79
2019-01-27T07:48:09.050Z,71.79
2019-01-27T07:50:56.648Z,71.77
2019-01-27T07:53:44.514Z,71.80
2019-01-27T07:56:40.559Z,70.86
2019-01-27T07:59:24.412Z,71.17
2019-01-27T08:02:00.432Z,70.46
2019-01-27T08:04:40.196Z,70.50
2019-01-27T08:07:26.331Z,70.53
2019-01-27T08:10:06.169Z,70.52
2019-01-27T08:12:56.739Z,70.70
2019-01-27T08:15:44.341Z,70.46
2019-01-27T08:18:40.182Z,70.75
2019-01-27T08:21:15.448Z,70.58
2019-01-27T08:24:15.536Z,70.53
2019-01-27T08:27:05.795Z,70.07
2019-01-27T08:29:53.089Z,69.95
2019-01-27T08:32:39.966Z,70.11
2019-01-27T08:35:27.641Z,68.88
2019-01-27T08:38:15.654Z,69.02
2019-01-27T08:41:12.377Z,68.21
2019-01-27T08:44:02.762Z,67.79
2019-01-27T08:46:35.597Z,67.74
2019-01-27T08:49:04.202Z,67.34
2019-01-27T08:51:32.842Z,67.49
2019-01-27T08:54:01.435Z,67.49
2019-01-27T08:56:30.090Z,67.18
2019-01-27T08:58:58.712Z,67.16
2019-01-27T09:01:45.412Z,66.86
2019-01-27T09:04:41.801Z,66.70
2019-01-27T09:07:28.211Z,66.87
2019-01-27T09:10:05.802Z,66.41
2019-01-27T09:12:42.602Z,66.51
2019-01-27T09:15:29.162Z,66.43
2019-01-27T09:18:08.854Z,66.56
2019-01-27T09:20:46.247Z,66.66
2019-01-27T09:23:33.833Z,66.55
2019-01-27T09:26:17.621Z,66.37
2019-01-27T09:28:58.484Z,66.58
2019-01-27T09:31:33.826Z,66.84
2019-01-27T09:34:24.427Z,67.25
2019-01-27T09:36:59.784Z,67.53
2019-01-27T09:39:50.491Z,67.63
2019-01-27T09:42:40.753Z,67.46
2019-01-27T09:45:21.941Z,67.87
2019-01-27T09:48:08.358Z,67.63
2019-01-27T09:50:42.549Z,67.73
2019-01-27T09:53:30.148Z,67.17
2019-01-27T09:56:04.233Z,67.23
2019-01-27T09:58:51.076Z,66.88
2019-01-27T10:01:25.463Z,66.70
2019-01-27T10:04:00.868Z,66.28
2019-01-27T10:06:49.747Z,65.90
2019-01-27T10:09:38.811Z,65.65
2019-01-27T10:12:13.176Z,66.00
2019-01-27T10:14:59.619Z,66.09
2019-01-27T10:17:48.695Z,66.16
2019-01-27T10:20:51.432Z,65.61
2019-01-27T10:23:35.113Z,65.97
2019-01-27T10:26:14.245Z,65.75
2019-01-27T10:28:57.373Z,65.37
2019-01-27T10:31:45.094Z,64.94
2019-01-27T10:34:20.833Z,65.19
2019-01-27T10:36:57.817Z,65.25
2019-01-27T10:39:34.104Z,66.72
2019-01-27T10:42:23.248Z,67.67
2019-01-27T10:45:13.019Z,68.13
2019-01-27T10:47:58.737Z,69.66
2019-01-27T10:50:56.893Z,69.11
2019-01-27T10:53:59.892Z,70.38
2019-01-27T10:56:50.338Z,70.64
2019-01-27T10:59:48.341Z,71.28
2019-01-27T11:02:37.180Z,71.39
2019-01-27T11:05:22.688Z,71.21
2019-01-27T11:08:07.952Z,71.47
2019-01-27T11:10:53.482Z,70.77
2019-01-27T11:13:33.296Z,70.41
2019-01-27T11:16:33.078Z,69.37
2019-01-27T11:19:12.457Z,69.00
2019-01-27T11:21:58.827Z,68.51
2019-01-27T11:24:35.536Z,67.22
2019-01-27T11:27:23.209Z,65.83
2019-01-27T11:30:03.308Z,64.15
2019-01-27T11:32:53.495Z,64.80
2019-01-27T11:35:53.239Z,63.97
2019-01-27T11:38:39.502Z,63.76
2019-01-27T11:41:26.212Z,64.13
2019-01-27T11:44:12.418Z,63.81
2019-01-27T11:47:00.052Z,63.09
2019-01-27T11:49:52.665Z,63.02
2019-01-27T11:52:25.562Z,62.32
2019-01-27T11:54:54.576Z,61.52
2019-01-27T11:57:23.185Z,61.31
2019-01-27T11:59:51.843Z,61.17
2019-01-27T12:02:20.432Z,61.28
2019-01-27T12:04:49.098Z,61.65
2019-01-27T12:07:17.704Z,62.22
2019-01-27T12:09:46.315Z,63.24
2019-01-27T12:12:15.165Z,63.75
2019-01-27T12:14:43.927Z,65.83
2019-01-27T12:17:15.811Z,66.11
2019-01-27T12:19:46.855Z,66.82
2019-01-27T12:22:15.755Z,67.79
2019-01-27T12:24:44.500Z,66.90
2019-01-27T12:27:13.071Z,67.38
2019-01-27T12:29:41.712Z,66.89
2019-01-27T12:32:10.292Z,66.39
2019-01-27T12:34:38.937Z,66.70
2019-01-27T12:37:07.568Z,65.95
2019-01-27T12:39:36.169Z,65.70
2019-01-27T12:42:04.765Z,65.21
2019-01-27T12:44:33.389Z,65.12
2019-01-27T12:47:02.004Z,65.72
2019-01-27T12:49:30.601Z,65.57
2019-01-27T12:51:59.199Z,64.85
2019-01-27T12:54:27.887Z,65.54
2019-01-27T12:56:56.493Z,65.30
2019-01-27T12:59:25.077Z,65.18
2019-01-27T13:01:53.699Z,65.32
2019-01-27T13:04:22.388Z,65.17
2019-01-27T13:06:51.027Z,65.14
2019-01-27T13:09:19.609Z,65.51
2019-01-27T13:11:48.225Z,64.75
2019-01-27T13:14:16.845Z,64.86
2019-01-27T13:16:45.411Z,64.92
2019-01-27T13:19:14.151Z,64.03
2019-01-27T13:21:42.839Z,63.18
2019-01-27T13:24:11.504Z,63.09
2019-01-27T13:26:40.035Z,62.39
2019-01-27T13:29:08.674Z,62.35
2019-01-27T13:31:37.331Z,62.32
2019-01-27T13:34:05.934Z,62.85
2019-01-27T13:36:34.557Z,62.27
2019-01-27T13:39:03.763Z,63.29
2019-01-27T13:41:32.401Z,63.73
2019-01-27T13:44:01.055Z,63.29
2019-01-27T13:46:29.760Z,63.53
2019-01-27T13:48:58.361Z,63.06
2019-01-27T13:51:27.921Z,63.20
2019-01-27T13:53:56.524Z,63.22
2019-01-27T13:56:25.127Z,63.39
2019-01-27T13:58:53.751Z,63.44
2019-01-27T14:01:22.342Z,63.74
2019-01-27T14:03:51.005Z,63.86
2019-01-27T14:06:19.585Z,63.88
2019-01-27T14:08:49.886Z,64.02
2019-01-27T14:11:20.257Z,64.00
2019-01-27T14:13:49.559Z,63.64
2019-01-27T14:16:18.136Z,63.42
2019-01-27T14:18:46.819Z,63.47
2019-01-27T14:21:16.609Z,63.56
2019-01-27T14:23:45.419Z,62.87
2019-01-27T14:26:14.095Z,63.28
2019-01-27T14:28:42.872Z,63.78
2019-01-27T14:31:14.424Z,64.08
2019-01-27T14:33:43.058Z,64.56
2019-01-27T14:36:11.641Z,64.44
2019-01-27T14:38:40.334Z,64.84
2019-01-27T14:41:09.006Z,64.66
2019-01-27T14:43:37.585Z,65.01
2019-01-27T14:46:06.250Z,65.06
2019-01-27T14:48:34.820Z,65.06
2019-01-27T14:51:03.437Z,64.78
2019-01-27T14:53:32.021Z,64.17
2019-01-27T14:56:00.559Z,64.28
2019-01-27T14:58:29.247Z,64.68
2019-01-27T15:00:57.848Z,64.97
2019-01-27T15:03:26.475Z,64.97
2019-01-27T15:05:55.061Z,65.00
2019-01-27T15:08:23.650Z,65.45
2019-01-27T15:10:52.249Z,65.33
2019-01-27T15:13:20.846Z,65.35
2019-01-27T15:15:49.435Z,65.18
2019-01-27T15:18:19.730Z,65.13
2019-01-27T15:20:51.418Z,65.00
2019-01-27T15:23:20.042Z,64.82
2019-01-27T15:25:48.965Z,65.22
2019-01-27T15:28:17.593Z,65.29
2019-01-27T15:30:46.224Z,65.28
2019-01-27T15:33:14.836Z,65.34
2019-01-27T15:35:43.490Z,65.56
2019-01-27T15:38:12.082Z,65.64
2019-01-27T15:40:40.853Z,66.48
2019-01-27T15:43:09.508Z,66.84
2019-01-27T15:45:38.632Z,67.35
2019-01-27T15:48:07.244Z,67.99
2019-01-27T15:50:35.952Z,68.58
2019-01-27T15:53:04.545Z,68.68
2019-01-27T15:55:33.109Z,69.15
2019-01-27T15:58:01.753Z,69.03
2019-01-27T16:00:31.146Z,68.53
2019-01-27T16:02:59.764Z,68.42
2019-01-27T16:05:28.366Z,68.73
2019-01-27T16:07:56.905Z,68.89
2019-01-27T16:10:25.523Z,69.13
2019-01-27T16:12:54.853Z,69.07
2019-01-27T16:15:28.436Z,68.79
2019-01-27T16:17:57.014Z,69.09
2019-01-27T16:20:26.131Z,68.92
2019-01-27T16:23:25.730Z,68.73
2019-01-27T16:25:54.582Z,69.43
2019-01-27T16:28:23.167Z,70.10
2019-01-27T16:31:22.905Z,70.22
2019-01-27T16:34:02.227Z,70.28
2019-01-27T16:36:31.450Z,70.01
2019-01-27T16:39:00.173Z,69.81
2019-01-27T16:41:28.793Z,69.98
2019-01-27T16:43:57.440Z,69.54
2019-01-27T16:46:26.192Z,70.00
2019-01-27T16:48:55.021Z,69.99
2019-01-27T16:51:23.622Z,70.88
2019-01-27T16:53:52.250Z,71.68
2019-01-27T16:56:20.884Z,72.81
2019-01-27T16:58:49.467Z,73.08
2019-01-27T17:01:18.124Z,73.30
2019-01-27T17:03:46.830Z,73.95
2019-01-27T17:06:15.794Z,74.44
2019-01-27T17:08:44.428Z,74.48
2019-01-27T17:11:14.542Z,74.75
2019-01-27T17:13:43.363Z,74.64
2019-01-27T17:16:11.967Z,74.34
2019-01-27T17:18:44.560Z,74.80
2019-01-27T17:21:13.209Z,75.07
2019-01-27T17:23:41.842Z,75.12
2019-01-27T17:26:10.552Z,75.82
2019-01-27T17:28:39.119Z,76.91
2019-01-27T17:31:07.758Z,77.44
2019-01-27T17:33:36.384Z,76.95
2019-01-27T17:36:05.033Z,76.98
2019-01-27T17:38:40.226Z,77.15
2019-01-27T17:41:04.027Z,77.58
2019-01-27T17:43:32.922Z,77.46
2019-01-27T17:46:01.556Z,77.39
2019-01-27T17:48:30.370Z,77.57
2019-01-27T17:50:59.115Z,77.54
2019-01-27T17:53:29.385Z,77.71
2019-01-27T17:55:57.990Z,78.28
2019-01-27T17:58:43.861Z,78.32
2019-01-27T18:01:33.070Z,78.10
2019-01-27T18:04:26.311Z,76.95
2019-01-27T18:07:12.354Z,77.46
2019-01-27T18:09:48.218Z,76.74
2019-01-27T18:12:25.276Z,76.48
2019-01-27T18:14:54.105Z,76.25
2019-01-27T18:17:23.844Z,76.61
2019-01-27T18:19:52.489Z,76.00
2019-01-27T18:22:21.095Z,76.01
2019-01-27T18:24:49.699Z,76.56
2019-01-27T18:27:18.302Z,77.19
2019-01-27T18:29:46.879Z,77.08
2019-01-27T18:32:15.488Z,77.62
2019-01-27T18:34:44.034Z,77.16
2019-01-27T18:37:12.662Z,77.70
2019-01-27T18:39:41.268Z,77.84
2019-01-27T18:42:10.095Z,78.46
2019-01-27T18:44:38.731Z,75.83
2019-01-27T18:47:07.359Z,76.13
2019-01-27T18:49:36.297Z,75.83
2019-01-27T18:52:05.094Z,74.26
2019-01-27T18:54:51.663Z,73.49
2019-01-27T18:57:27.477Z,72.85
2019-01-27T19:00:30.501Z,71.91
2019-01-27T19:03:10.014Z,72.32
2019-01-27T19:05:46.063Z,73.56
2019-01-27T19:08:32.652Z,72.87
2019-01-27T19:11:10.891Z,71.53
2019-01-27T19:13:57.122Z,72.18
2019-01-27T19:16:56.715Z,70.91
2019-01-27T19:19:33.999Z,70.82
2019-01-27T19:22:20.374Z,72.03
2019-01-27T19:25:13.130Z,71.21
2019-01-27T19:28:19.063Z,71.18
2019-01-27T19:31:06.701Z,71.89
2019-01-27T19:33:44.531Z,71.82
2019-01-27T19:36:22.841Z,72.36
2019-01-27T19:39:01.076Z,72.97
2019-01-27T19:41:57.573Z,72.62
2019-01-27T19:44:43.742Z,71.04
2019-01-27T19:47:40.747Z,72.40
2019-01-27T19:50:28.696Z,72.47
2019-01-27T19:53:25.608Z,72.48
2019-01-27T19:56:12.286Z,71.28
2019-01-27T19:58:51.855Z,71.53
2019-01-27T20:01:27.182Z,71.65
2019-01-27T20:04:13.592Z,72.49
2019-01-27T20:07:05.238Z,71.16
2019-01-27T20:10:02.068Z,71.98
2019-01-27T20:12:37.911Z,71.58
2019-01-27T20:15:28.862Z,70.67
2019-01-27T20:18:22.576Z,69.83
2019-01-27T20:21:09.323Z,69.61
2019-01-27T20:23:56.943Z,69.37
2019-01-27T20:26:36.442Z,67.19
2019-01-27T20:29:22.914Z,67.57
2019-01-27T20:32:13.583Z,67.32
2019-01-27T20:35:06.858Z,68.13
2019-01-27T20:37:44.982Z,68.81
2019-01-27T20:40:33.939Z,69.18
2019-01-27T20:43:40.070Z,69.90
2019-01-27T20:46:15.554Z,70.21
2019-01-27T20:48:53.127Z,70.68
2019-01-27T20:51:39.332Z,71.04
2019-01-27T20:54:42.279Z,71.26
2019-01-27T20:57:32.543Z,71.45
2019-01-27T21:00:20.148Z,71.82
2019-01-27T21:03:06.319Z,71.59
2019-01-27T21:05:52.685Z,71.46
2019-01-27T21:08:58.839Z,72.21
2019-01-27T21:12:00.853Z,72.32
2019-01-27T21:14:38.068Z,73.08
2019-01-27T21:17:15.729Z,73.27
2019-01-27T21:19:48.412Z,73.46
2019-01-27T21:22:17.074Z,73.93
2019-01-27T21:24:45.706Z,74.23
2019-01-27T21:27:14.317Z,74.28
2019-01-27T21:29:42.875Z,74.27
2019-01-27T21:32:11.583Z,73.95
2019-01-27T21:34:40.226Z,73.96
2019-01-27T21:37:08.908Z,74.06
2019-01-27T21:39:37.657Z,74.17
2019-01-27T21:42:06.282Z,73.87
2019-01-27T21:44:34.796Z,74.10
2019-01-27T21:47:03.404Z,73.79
2019-01-27T21:49:32.004Z,73.95
2019-01-27T21:52:00.636Z,73.48
2019-01-27T21:54:29.340Z,73.34
2019-01-27T21:56:57.948Z,73.60
2019-01-27T21:59:26.627Z,73.42
2019-01-27T22:01:55.220Z,72.97
2019-01-27T22:04:24.306Z,72.88
2019-01-27T22:06:53.515Z,72.80
2019-01-27T22:09:22.108Z,72.79
2019-01-27T22:11:50.684Z,72.65
2019-01-27T22:14:19.312Z,72.90
2019-01-27T22:16:47.943Z,73.10
2019-01-27T22:19:16.540Z,72.77
2019-01-27T22:21:45.206Z,72.90
2019-01-27T22:24:14.040Z,72.73
2019-01-27T22:26:42.671Z,72.25
2019-01-27T22:29:11.270Z,72.22
2019-01-27T22:31:40.022Z,72.12
2019-01-27T22:34:08.600Z,72.00
2019-01-27T22:36:37.240Z,71.08
2019-01-27T22:39:08.151Z,71.08
2019-01-27T22:41:37.000Z,70.88
2019-01-27T22:44:06.160Z,71.02
2019-01-27T22:46:34.781Z,70.64
2019-01-27T22:49:03.343Z,70.88
2019-01-27T22:51:31.939Z,70.44
2019-01-27T22:54:00.654Z,70.71
2019-01-27T22:56:29.249Z,70.53
2019-01-27T22:58:57.884Z,70.21
2019-01-27T23:01:26.545Z,70.55
2019-01-27T23:03:55.931Z,70.68
2019-01-27T23:06:25.171Z,70.47
2019-01-27T23:08:53.823Z,70.65
2019-01-27T23:11:22.429Z,70.44
2019-01-27T23:13:51.063Z,70.38
2019-01-27T23:16:19.913Z,70.36
2019-01-27T23:18:48.510Z,70.34
2019-01-27T23:21:17.090Z,70.23
2019-01-27T23:23:45.833Z,70.23
2019-01-27T23:26:14.492Z,70.53
2019-01-27T23:28:43.162Z,70.46
2019-01-27T23:31:12.058Z,70.51
2019-01-27T23:33:40.673Z,70.49
2019-01-27T23:36:09.276Z,70.59
2019-01-27T23:38:37.847Z,70.79
2019-01-27T23:41:06.418Z,70.92
2019-01-27T23:43:35.011Z,70.84
2019-01-27T23:46:03.607Z,71.03
2019-01-27T23:48:32.195Z,70.88
2019-01-27T23:51:00.911Z,70.66
2019-01-27T23:53:29.561Z,70.56
2019-01-27T23:55:58.162Z,70.87
2019-01-27T23:58:26.735Z,70.83
